sensor_id;sensor_type;location;lat;lon;timestamp;temperature;humidity
52867;DHT22;38739;53.324;6.862;2023-10-08T00:01:29;13.20;99.90
52867;DHT22;38739;53.324;6.862;2023-10-08T00:03:55;13.20;99.90
52867;DHT22;38739;53.324;6.862;2023-10-08T00:06:26;13.20;99.90
52867;DHT22;38739;53.324;6.862;2023-10-08T00:08:53;13.20;99.90
52867;DHT22;38739;53.324;6.862;2023-10-08T00:11:28;13.20;99.90
52867;DHT22;38739;53.324;6.862;2023-10-08T00:13:57;13.20;99.90
52867;DHT22;38739;53.324;6.862;2023-10-08T00:16:22;13.10;99.90
52867;DHT22;38739;53.324;6.862;2023-10-08T00:18:48;13.20;99.90
52867;DHT22;38739;53.324;6.862;2023-10-08T00:21:23;13.10;99.90
52867;DHT22;38739;53.324;6.862;2023-10-08T00:23:52;13.10;99.90
52867;DHT22;38739;53.324;6.862;2023-10-08T00:26:21;13.10;99.90
52867;DHT22;38739;53.324;6.862;2023-10-08T00:28:56;13.10;99.90
52867;DHT22;38739;53.324;6.862;2023-10-08T00:31:23;13.10;99.90
52867;DHT22;38739;53.324;6.862;2023-10-08T00:33:52;13.10;99.90
52867;DHT22;38739;53.324;6.862;2023-10-08T00:36:18;13.10;99.90
52867;DHT22;38739;53.324;6.862;2023-10-08T00:38:46;13.10;99.90
52867;DHT22;38739;53.324;6.862;2023-10-08T00:43:43;13.10;99.90
52867;DHT22;38739;53.324;6.862;2023-10-08T00:46:11;13.10;99.90
52867;DHT22;38739;53.324;6.862;2023-10-08T00:49:03;13.10;99.90
52867;DHT22;38739;53.324;6.862;2023-10-08T00:51:47;13.10;99.90
52867;DHT22;38739;53.324;6.862;2023-10-08T00:54:13;13.00;99.90
52867;DHT22;38739;53.324;6.862;2023-10-08T00:56:46;13.00;99.90
52867;DHT22;38739;53.324;6.862;2023-10-08T00:59:18;13.00;99.90
52867;DHT22;38739;53.324;6.862;2023-10-08T01:01:48;13.00;99.90
52867;DHT22;38739;53.324;6.862;2023-10-08T01:04:25;13.10;99.90
52867;DHT22;38739;53.324;6.862;2023-10-08T01:06:56;13.00;99.90
52867;DHT22;38739;53.324;6.862;2023-10-08T01:09:27;13.00;99.90
52867;DHT22;38739;53.324;6.862;2023-10-08T01:14:33;13.10;99.90
52867;DHT22;38739;53.324;6.862;2023-10-08T01:16:58;13.10;99.90
52867;DHT22;38739;53.324;6.862;2023-10-08T01:19:25;13.00;99.90
52867;DHT22;38739;53.324;6.862;2023-10-08T01:21:52;13.10;99.90
52867;DHT22;38739;53.324;6.862;2023-10-08T01:24:18;13.10;99.90
52867;DHT22;38739;53.324;6.862;2023-10-08T01:26:45;13.10;99.90
52867;DHT22;38739;53.324;6.862;2023-10-08T01:29:14;13.10;99.90
52867;DHT22;38739;53.324;6.862;2023-10-08T01:31:48;13.00;99.90
52867;DHT22;38739;53.324;6.862;2023-10-08T01:34:14;13.10;99.90
52867;DHT22;38739;53.324;6.862;2023-10-08T01:36:42;13.10;99.90
52867;DHT22;38739;53.324;6.862;2023-10-08T01:39:11;13.00;99.90
52867;DHT22;38739;53.324;6.862;2023-10-08T01:41:45;13.00;99.90
52867;DHT22;38739;53.324;6.862;2023-10-08T01:44:12;13.00;99.90
52867;DHT22;38739;53.324;6.862;2023-10-08T01:46:38;13.00;99.90
52867;DHT22;38739;53.324;6.862;2023-10-08T01:49:06;13.00;99.90
52867;DHT22;38739;53.324;6.862;2023-10-08T01:51:55;13.00;99.90
52867;DHT22;38739;53.324;6.862;2023-10-08T01:54:21;13.00;99.90
52867;DHT22;38739;53.324;6.862;2023-10-08T01:56:47;13.00;99.90
52867;DHT22;38739;53.324;6.862;2023-10-08T01:59:14;13.00;99.90
52867;DHT22;38739;53.324;6.862;2023-10-08T02:01:42;13.00;99.90
52867;DHT22;38739;53.324;6.862;2023-10-08T02:04:09;13.00;99.90
52867;DHT22;38739;53.324;6.862;2023-10-08T02:06:35;13.00;99.90
52867;DHT22;38739;53.324;6.862;2023-10-08T02:09:02;13.00;99.90
52867;DHT22;38739;53.324;6.862;2023-10-08T02:11:48;13.00;99.90
52867;DHT22;38739;53.324;6.862;2023-10-08T02:14:20;13.00;99.90
52867;DHT22;38739;53.324;6.862;2023-10-08T02:16:50;13.00;99.90
52867;DHT22;38739;53.324;6.862;2023-10-08T02:19:18;13.00;99.90
52867;DHT22;38739;53.324;6.862;2023-10-08T02:21:56;13.00;99.90
52867;DHT22;38739;53.324;6.862;2023-10-08T02:24:24;13.00;99.90
52867;DHT22;38739;53.324;6.862;2023-10-08T02:26:58;13.00;99.90
52867;DHT22;38739;53.324;6.862;2023-10-08T02:29:30;13.00;99.90
52867;DHT22;38739;53.324;6.862;2023-10-08T02:31:59;13.00;99.90
52867;DHT22;38739;53.324;6.862;2023-10-08T02:34:25;13.00;99.90
52867;DHT22;38739;53.324;6.862;2023-10-08T02:36:51;13.00;99.90
52867;DHT22;38739;53.324;6.862;2023-10-08T02:39:16;13.00;99.90
52867;DHT22;38739;53.324;6.862;2023-10-08T02:41:52;13.00;99.90
52867;DHT22;38739;53.324;6.862;2023-10-08T02:44:19;13.00;99.90
52867;DHT22;38739;53.324;6.862;2023-10-08T02:46:47;13.00;99.90
52867;DHT22;38739;53.324;6.862;2023-10-08T02:49:18;13.00;99.90
52867;DHT22;38739;53.324;6.862;2023-10-08T02:51:45;13.00;99.90
52867;DHT22;38739;53.324;6.862;2023-10-08T02:54:11;13.00;99.90
52867;DHT22;38739;53.324;6.862;2023-10-08T02:56:48;13.00;99.90
52867;DHT22;38739;53.324;6.862;2023-10-08T02:59:17;13.00;99.90
52867;DHT22;38739;53.324;6.862;2023-10-08T03:01:43;13.00;99.90
52867;DHT22;38739;53.324;6.862;2023-10-08T03:04:10;13.00;99.90
52867;DHT22;38739;53.324;6.862;2023-10-08T03:06:49;13.10;99.90
52867;DHT22;38739;53.324;6.862;2023-10-08T03:09:19;13.00;99.90
52867;DHT22;38739;53.324;6.862;2023-10-08T03:11:58;13.00;99.90
52867;DHT22;38739;53.324;6.862;2023-10-08T03:14:24;13.10;99.90
52867;DHT22;38739;53.324;6.862;2023-10-08T03:16:54;13.00;99.90
52867;DHT22;38739;53.324;6.862;2023-10-08T03:19:32;13.10;99.90
52867;DHT22;38739;53.324;6.862;2023-10-08T03:21:58;13.00;99.90
52867;DHT22;38739;53.324;6.862;2023-10-08T03:24:25;13.00;99.90
52867;DHT22;38739;53.324;6.862;2023-10-08T03:27:03;13.00;99.90
52867;DHT22;38739;53.324;6.862;2023-10-08T03:29:46;13.00;99.90
52867;DHT22;38739;53.324;6.862;2023-10-08T03:32:13;13.00;99.90
52867;DHT22;38739;53.324;6.862;2023-10-08T03:34:49;13.00;99.90
52867;DHT22;38739;53.324;6.862;2023-10-08T03:37:18;13.00;99.90
52867;DHT22;38739;53.324;6.862;2023-10-08T03:39:50;13.00;99.90
52867;DHT22;38739;53.324;6.862;2023-10-08T03:42:47;13.00;99.90
52867;DHT22;38739;53.324;6.862;2023-10-08T03:45:15;13.00;99.90
52867;DHT22;38739;53.324;6.862;2023-10-08T03:47:48;13.00;99.90
52867;DHT22;38739;53.324;6.862;2023-10-08T03:50:28;13.00;99.90
52867;DHT22;38739;53.324;6.862;2023-10-08T03:53:06;13.00;99.90
52867;DHT22;38739;53.324;6.862;2023-10-08T03:55:38;13.00;99.90
52867;DHT22;38739;53.324;6.862;2023-10-08T03:58:09;13.00;99.90
52867;DHT22;38739;53.324;6.862;2023-10-08T04:00:55;12.90;99.90
52867;DHT22;38739;53.324;6.862;2023-10-08T04:03:37;12.90;99.90
52867;DHT22;38739;53.324;6.862;2023-10-08T04:06:21;12.90;99.90
52867;DHT22;38739;53.324;6.862;2023-10-08T04:08:56;13.00;99.90
52867;DHT22;38739;53.324;6.862;2023-10-08T04:11:31;12.90;99.90
52867;DHT22;38739;53.324;6.862;2023-10-08T04:14:04;12.90;99.90
52867;DHT22;38739;53.324;6.862;2023-10-08T04:16:32;12.90;99.90
52867;DHT22;38739;53.324;6.862;2023-10-08T04:19:03;12.90;99.90
52867;DHT22;38739;53.324;6.862;2023-10-08T04:21:29;12.90;99.90
52867;DHT22;38739;53.324;6.862;2023-10-08T04:23:55;12.90;99.90
52867;DHT22;38739;53.324;6.862;2023-10-08T04:26:23;12.90;99.90
52867;DHT22;38739;53.324;6.862;2023-10-08T04:28:53;12.90;99.90
52867;DHT22;38739;53.324;6.862;2023-10-08T04:31:28;12.90;99.90
52867;DHT22;38739;53.324;6.862;2023-10-08T04:34:03;12.80;99.90
52867;DHT22;38739;53.324;6.862;2023-10-08T04:36:38;12.80;99.90
52867;DHT22;38739;53.324;6.862;2023-10-08T04:39:04;12.80;99.90
52867;DHT22;38739;53.324;6.862;2023-10-08T04:41:42;12.70;99.90
52867;DHT22;38739;53.324;6.862;2023-10-08T04:44:09;12.70;99.90
52867;DHT22;38739;53.324;6.862;2023-10-08T04:46:45;12.60;99.90
52867;DHT22;38739;53.324;6.862;2023-10-08T04:49:10;12.60;99.90
52867;DHT22;38739;53.324;6.862;2023-10-08T04:51:48;12.50;99.90
52867;DHT22;38739;53.324;6.862;2023-10-08T04:54:14;12.50;99.90
52867;DHT22;38739;53.324;6.862;2023-10-08T04:56:44;12.50;99.90
52867;DHT22;38739;53.324;6.862;2023-10-08T04:59:10;12.50;99.90
52867;DHT22;38739;53.324;6.862;2023-10-08T05:01:39;12.50;99.90
52867;DHT22;38739;53.324;6.862;2023-10-08T05:04:14;12.50;99.90
52867;DHT22;38739;53.324;6.862;2023-10-08T05:06:49;12.40;99.90
52867;DHT22;38739;53.324;6.862;2023-10-08T05:09:15;12.40;99.90
52867;DHT22;38739;53.324;6.862;2023-10-08T05:11:44;12.40;99.90
52867;DHT22;38739;53.324;6.862;2023-10-08T05:14:21;12.40;99.90
52867;DHT22;38739;53.324;6.862;2023-10-08T05:17:17;12.30;99.90
52867;DHT22;38739;53.324;6.862;2023-10-08T05:19:45;12.30;99.90
52867;DHT22;38739;53.324;6.862;2023-10-08T05:22:17;12.30;99.90
52867;DHT22;38739;53.324;6.862;2023-10-08T05:24:48;12.20;99.90
52867;DHT22;38739;53.324;6.862;2023-10-08T05:27:42;12.20;99.90
52867;DHT22;38739;53.324;6.862;2023-10-08T05:30:20;12.10;99.90
52867;DHT22;38739;53.324;6.862;2023-10-08T05:33:06;12.10;99.90
52867;DHT22;38739;53.324;6.862;2023-10-08T05:35:41;12.10;99.90
52867;DHT22;38739;53.324;6.862;2023-10-08T05:38:11;12.10;99.90
52867;DHT22;38739;53.324;6.862;2023-10-08T05:40:48;12.00;99.90
52867;DHT22;38739;53.324;6.862;2023-10-08T05:43:36;12.00;99.90
52867;DHT22;38739;53.324;6.862;2023-10-08T05:46:06;11.90;99.90
52867;DHT22;38739;53.324;6.862;2023-10-08T05:48:54;11.90;99.90
52867;DHT22;38739;53.324;6.862;2023-10-08T05:51:30;11.90;99.90
52867;DHT22;38739;53.324;6.862;2023-10-08T05:54:16;11.80;99.90
52867;DHT22;38739;53.324;6.862;2023-10-08T05:57:04;11.80;99.90
52867;DHT22;38739;53.324;6.862;2023-10-08T05:59:37;11.80;99.90
52867;DHT22;38739;53.324;6.862;2023-10-08T06:02:40;11.80;99.90
52867;DHT22;38739;53.324;6.862;2023-10-08T06:05:12;11.80;99.90
52867;DHT22;38739;53.324;6.862;2023-10-08T06:07:44;11.80;99.90
52867;DHT22;38739;53.324;6.862;2023-10-08T06:13:08;11.80;99.90
52867;DHT22;38739;53.324;6.862;2023-10-08T06:15:47;11.90;99.90
52867;DHT22;38739;53.324;6.862;2023-10-08T06:18:29;11.80;99.90
52867;DHT22;38739;53.324;6.862;2023-10-08T06:20:58;11.80;99.90
52867;DHT22;38739;53.324;6.862;2023-10-08T06:23:25;11.80;99.90
52867;DHT22;38739;53.324;6.862;2023-10-08T06:25:53;11.80;99.90
52867;DHT22;38739;53.324;6.862;2023-10-08T06:28:31;11.80;99.90
52867;DHT22;38739;53.324;6.862;2023-10-08T06:31:01;11.80;99.90
52867;DHT22;38739;53.324;6.862;2023-10-08T06:33:27;11.80;99.90
52867;DHT22;38739;53.324;6.862;2023-10-08T06:35:57;11.80;99.90
52867;DHT22;38739;53.324;6.862;2023-10-08T06:38:34;11.80;99.90
52867;DHT22;38739;53.324;6.862;2023-10-08T06:41:02;11.80;99.90
52867;DHT22;38739;53.324;6.862;2023-10-08T06:43:41;11.90;99.90
52867;DHT22;38739;53.324;6.862;2023-10-08T06:46:17;12.00;99.90
52867;DHT22;38739;53.324;6.862;2023-10-08T06:48:47;12.00;99.90
52867;DHT22;38739;53.324;6.862;2023-10-08T06:51:16;12.10;99.90
52867;DHT22;38739;53.324;6.862;2023-10-08T06:53:46;12.20;99.90
52867;DHT22;38739;53.324;6.862;2023-10-08T06:56:13;12.20;99.90
52867;DHT22;38739;53.324;6.862;2023-10-08T06:58:39;12.30;99.90
52867;DHT22;38739;53.324;6.862;2023-10-08T07:01:11;12.40;99.90
52867;DHT22;38739;53.324;6.862;2023-10-08T07:03:38;12.50;99.90
52867;DHT22;38739;53.324;6.862;2023-10-08T07:06:04;12.50;99.90
52867;DHT22;38739;53.324;6.862;2023-10-08T07:08:43;12.50;99.90
52867;DHT22;38739;53.324;6.862;2023-10-08T07:11:12;12.60;99.90
52867;DHT22;38739;53.324;6.862;2023-10-08T07:13:39;12.60;99.90
52867;DHT22;38739;53.324;6.862;2023-10-08T07:16:07;12.60;99.90
52867;DHT22;38739;53.324;6.862;2023-10-08T07:18:39;12.70;99.90
52867;DHT22;38739;53.324;6.862;2023-10-08T07:21:07;12.80;99.90
52867;DHT22;38739;53.324;6.862;2023-10-08T07:23:39;12.90;99.90
52867;DHT22;38739;53.324;6.862;2023-10-08T07:26:29;12.90;99.90
52867;DHT22;38739;53.324;6.862;2023-10-08T07:29:06;13.00;99.90
52867;DHT22;38739;53.324;6.862;2023-10-08T07:31:36;13.00;99.90
52867;DHT22;38739;53.324;6.862;2023-10-08T07:34:03;13.10;99.90
52867;DHT22;38739;53.324;6.862;2023-10-08T07:36:42;13.10;99.90
52867;DHT22;38739;53.324;6.862;2023-10-08T07:39:09;13.10;99.90
52867;DHT22;38739;53.324;6.862;2023-10-08T07:41:49;13.10;99.90
52867;DHT22;38739;53.324;6.862;2023-10-08T07:44:15;13.10;99.90
52867;DHT22;38739;53.324;6.862;2023-10-08T07:46:41;13.20;99.90
52867;DHT22;38739;53.324;6.862;2023-10-08T07:49:06;13.20;99.90
52867;DHT22;38739;53.324;6.862;2023-10-08T07:51:32;13.30;99.90
52867;DHT22;38739;53.324;6.862;2023-10-08T07:53:58;13.30;99.90
52867;DHT22;38739;53.324;6.862;2023-10-08T07:56:25;13.40;99.90
52867;DHT22;38739;53.324;6.862;2023-10-08T07:58:54;13.40;99.90
52867;DHT22;38739;53.324;6.862;2023-10-08T08:01:23;13.50;99.90
52867;DHT22;38739;53.324;6.862;2023-10-08T08:03:52;13.50;99.90
52867;DHT22;38739;53.324;6.862;2023-10-08T08:06:18;13.60;99.90
52867;DHT22;38739;53.324;6.862;2023-10-08T08:08:43;13.60;99.90
52867;DHT22;38739;53.324;6.862;2023-10-08T08:11:10;13.60;99.90
52867;DHT22;38739;53.324;6.862;2023-10-08T08:13:43;13.70;99.90
52867;DHT22;38739;53.324;6.862;2023-10-08T08:16:11;13.70;99.90
52867;DHT22;38739;53.324;6.862;2023-10-08T08:21:12;14.00;99.90
52867;DHT22;38739;53.324;6.862;2023-10-08T08:23:43;14.10;99.90
52867;DHT22;38739;53.324;6.862;2023-10-08T08:26:22;14.20;99.90
52867;DHT22;38739;53.324;6.862;2023-10-08T08:28:55;14.30;99.90
52867;DHT22;38739;53.324;6.862;2023-10-08T08:31:23;14.30;99.90
52867;DHT22;38739;53.324;6.862;2023-10-08T08:33:50;14.30;99.90
52867;DHT22;38739;53.324;6.862;2023-10-08T08:36:23;14.20;99.90
52867;DHT22;38739;53.324;6.862;2023-10-08T08:38:49;14.20;99.90
52867;DHT22;38739;53.324;6.862;2023-10-08T08:41:16;14.20;99.90
52867;DHT22;38739;53.324;6.862;2023-10-08T08:43:52;14.20;99.90
52867;DHT22;38739;53.324;6.862;2023-10-08T08:46:30;14.20;99.90
52867;DHT22;38739;53.324;6.862;2023-10-08T08:48:58;14.20;99.90
52867;DHT22;38739;53.324;6.862;2023-10-08T08:51:24;14.30;99.90
52867;DHT22;38739;53.324;6.862;2023-10-08T08:53:50;14.30;99.90
52867;DHT22;38739;53.324;6.862;2023-10-08T08:56:18;14.40;99.90
52867;DHT22;38739;53.324;6.862;2023-10-08T08:58:44;14.50;99.90
52867;DHT22;38739;53.324;6.862;2023-10-08T09:01:12;14.70;99.90
52867;DHT22;38739;53.324;6.862;2023-10-08T09:03:39;14.80;99.90
52867;DHT22;38739;53.324;6.862;2023-10-08T09:06:05;14.90;99.90
52867;DHT22;38739;53.324;6.862;2023-10-08T09:08:35;15.00;99.90
52867;DHT22;38739;53.324;6.862;2023-10-08T09:11:02;15.10;99.90
52867;DHT22;38739;53.324;6.862;2023-10-08T09:13:34;15.10;99.90
52867;DHT22;38739;53.324;6.862;2023-10-08T09:16:14;15.10;99.90
52867;DHT22;38739;53.324;6.862;2023-10-08T09:18:44;15.10;99.90
52867;DHT22;38739;53.324;6.862;2023-10-08T09:21:14;15.10;99.90
52867;DHT22;38739;53.324;6.862;2023-10-08T09:23:42;15.10;99.90
52867;DHT22;38739;53.324;6.862;2023-10-08T09:26:13;15.10;99.90
52867;DHT22;38739;53.324;6.862;2023-10-08T09:28:49;15.10;99.90
52867;DHT22;38739;53.324;6.862;2023-10-08T09:31:17;15.20;99.90
52867;DHT22;38739;53.324;6.862;2023-10-08T09:34:03;15.40;99.90
52867;DHT22;38739;53.324;6.862;2023-10-08T09:36:29;15.40;99.90
52867;DHT22;38739;53.324;6.862;2023-10-08T09:39:00;15.50;99.90
52867;DHT22;38739;53.324;6.862;2023-10-08T09:41:31;15.50;99.90
52867;DHT22;38739;53.324;6.862;2023-10-08T09:44:03;15.50;99.90
52867;DHT22;38739;53.324;6.862;2023-10-08T09:46:31;15.50;99.90
52867;DHT22;38739;53.324;6.862;2023-10-08T09:49:01;15.70;99.90
52867;DHT22;38739;53.324;6.862;2023-10-08T09:51:30;15.90;99.90
52867;DHT22;38739;53.324;6.862;2023-10-08T09:54:05;16.00;99.90
52867;DHT22;38739;53.324;6.862;2023-10-08T09:56:36;16.00;99.90
52867;DHT22;38739;53.324;6.862;2023-10-08T09:59:02;15.90;99.90
52867;DHT22;38739;53.324;6.862;2023-10-08T10:01:28;15.90;99.90
52867;DHT22;38739;53.324;6.862;2023-10-08T10:03:57;16.00;99.90
52867;DHT22;38739;53.324;6.862;2023-10-08T10:06:26;16.00;99.90
52867;DHT22;38739;53.324;6.862;2023-10-08T10:08:55;16.20;99.90
52867;DHT22;38739;53.324;6.862;2023-10-08T10:11:30;16.20;99.90
52867;DHT22;38739;53.324;6.862;2023-10-08T10:14:00;16.20;99.90
52867;DHT22;38739;53.324;6.862;2023-10-08T10:16:26;16.20;99.90
52867;DHT22;38739;53.324;6.862;2023-10-08T10:18:55;16.20;99.90
52867;DHT22;38739;53.324;6.862;2023-10-08T10:21:29;16.20;99.90
52867;DHT22;38739;53.324;6.862;2023-10-08T10:23:56;16.30;99.90
52867;DHT22;38739;53.324;6.862;2023-10-08T10:26:26;16.20;99.90
52867;DHT22;38739;53.324;6.862;2023-10-08T10:31:45;16.30;99.90
52867;DHT22;38739;53.324;6.862;2023-10-08T10:34:17;16.40;99.90
52867;DHT22;38739;53.324;6.862;2023-10-08T10:36:44;16.50;99.90
52867;DHT22;38739;53.324;6.862;2023-10-08T10:39:18;16.70;99.90
52867;DHT22;38739;53.324;6.862;2023-10-08T10:42:00;17.00;99.90
52867;DHT22;38739;53.324;6.862;2023-10-08T10:44:32;17.20;99.90
52867;DHT22;38739;53.324;6.862;2023-10-08T10:46:59;17.20;99.90
52867;DHT22;38739;53.324;6.862;2023-10-08T10:49:41;17.10;99.90
52867;DHT22;38739;53.324;6.862;2023-10-08T10:52:28;17.10;99.90
52867;DHT22;38739;53.324;6.862;2023-10-08T10:55:14;17.00;99.90
52867;DHT22;38739;53.324;6.862;2023-10-08T10:57:40;16.90;99.90
52867;DHT22;38739;53.324;6.862;2023-10-08T11:00:07;16.80;99.90
52867;DHT22;38739;53.324;6.862;2023-10-08T11:02:52;16.80;99.90
52867;DHT22;38739;53.324;6.862;2023-10-08T11:05:22;16.80;99.90
52867;DHT22;38739;53.324;6.862;2023-10-08T11:07:58;16.80;99.90
52867;DHT22;38739;53.324;6.862;2023-10-08T11:10:37;16.80;99.90
52867;DHT22;38739;53.324;6.862;2023-10-08T11:13:05;17.00;99.90
52867;DHT22;38739;53.324;6.862;2023-10-08T11:15:40;17.30;99.90
52867;DHT22;38739;53.324;6.862;2023-10-08T11:18:13;17.40;99.90
52867;DHT22;38739;53.324;6.862;2023-10-08T11:20:41;17.50;99.90
52867;DHT22;38739;53.324;6.862;2023-10-08T11:23:36;17.80;99.90
52867;DHT22;38739;53.324;6.862;2023-10-08T11:26:04;18.00;99.90
52867;DHT22;38739;53.324;6.862;2023-10-08T11:28:32;18.10;99.90
52867;DHT22;38739;53.324;6.862;2023-10-08T11:31:03;18.00;99.90
52867;DHT22;38739;53.324;6.862;2023-10-08T11:33:39;18.10;99.90
52867;DHT22;38739;53.324;6.862;2023-10-08T11:36:07;18.20;99.90
52867;DHT22;38739;53.324;6.862;2023-10-08T11:38:44;18.50;99.90
52867;DHT22;38739;53.324;6.862;2023-10-08T11:41:15;18.60;99.90
52867;DHT22;38739;53.324;6.862;2023-10-08T11:43:52;18.70;99.90
52867;DHT22;38739;53.324;6.862;2023-10-08T11:46:29;18.70;99.90
52867;DHT22;38739;53.324;6.862;2023-10-08T11:49:09;18.70;99.90
52867;DHT22;38739;53.324;6.862;2023-10-08T11:51:44;18.60;99.90
52867;DHT22;38739;53.324;6.862;2023-10-08T11:54:09;18.30;99.90
52867;DHT22;38739;53.324;6.862;2023-10-08T11:56:38;18.20;99.90
52867;DHT22;38739;53.324;6.862;2023-10-08T11:59:05;18.00;99.90
52867;DHT22;38739;53.324;6.862;2023-10-08T12:01:38;17.90;99.90
52867;DHT22;38739;53.324;6.862;2023-10-08T12:04:08;17.70;99.90
52867;DHT22;38739;53.324;6.862;2023-10-08T12:06:42;17.60;99.90
52867;DHT22;38739;53.324;6.862;2023-10-08T12:09:17;17.60;99.90
52867;DHT22;38739;53.324;6.862;2023-10-08T12:11:47;17.60;99.90
52867;DHT22;38739;53.324;6.862;2023-10-08T12:14:13;17.60;99.90
52867;DHT22;38739;53.324;6.862;2023-10-08T12:16:40;17.70;99.90
52867;DHT22;38739;53.324;6.862;2023-10-08T12:19:07;17.70;99.90
52867;DHT22;38739;53.324;6.862;2023-10-08T12:21:42;17.70;99.90
52867;DHT22;38739;53.324;6.862;2023-10-08T12:24:11;17.80;99.90
52867;DHT22;38739;53.324;6.862;2023-10-08T12:26:41;17.70;99.90
52867;DHT22;38739;53.324;6.862;2023-10-08T12:29:15;17.70;99.90
52867;DHT22;38739;53.324;6.862;2023-10-08T12:31:43;17.70;99.90
52867;DHT22;38739;53.324;6.862;2023-10-08T12:34:13;17.70;99.90
52867;DHT22;38739;53.324;6.862;2023-10-08T12:36:39;17.90;99.90
52867;DHT22;38739;53.324;6.862;2023-10-08T12:39:05;18.00;99.90
52867;DHT22;38739;53.324;6.862;2023-10-08T12:41:42;18.20;99.90
52867;DHT22;38739;53.324;6.862;2023-10-08T12:44:11;19.30;99.90
52867;DHT22;38739;53.324;6.862;2023-10-08T12:46:37;20.50;99.90
52867;DHT22;38739;53.324;6.862;2023-10-08T12:49:03;22.00;99.10
52867;DHT22;38739;53.324;6.862;2023-10-08T12:51:29;23.00;94.60
52867;DHT22;38739;53.324;6.862;2023-10-08T12:53:59;23.90;91.60
52867;DHT22;38739;53.324;6.862;2023-10-08T12:56:32;24.10;80.90
52867;DHT22;38739;53.324;6.862;2023-10-08T12:59:03;23.80;81.30
52867;DHT22;38739;53.324;6.862;2023-10-08T13:01:34;23.40;76.00
52867;DHT22;38739;53.324;6.862;2023-10-08T13:04:02;23.60;78.30
52867;DHT22;38739;53.324;6.862;2023-10-08T13:06:33;24.00;79.10
52867;DHT22;38739;53.324;6.862;2023-10-08T13:09:03;24.20;79.50
52867;DHT22;38739;53.324;6.862;2023-10-08T13:11:34;23.90;75.80
52867;DHT22;38739;53.324;6.862;2023-10-08T13:14:00;23.30;77.10
52867;DHT22;38739;53.324;6.862;2023-10-08T13:16:27;22.70;82.10
52867;DHT22;38739;53.324;6.862;2023-10-08T13:18:57;22.10;79.40
52867;DHT22;38739;53.324;6.862;2023-10-08T13:21:25;21.50;82.10
52867;DHT22;38739;53.324;6.862;2023-10-08T13:23:51;21.20;89.60
52867;DHT22;38739;53.324;6.862;2023-10-08T13:26:17;20.90;89.90
52867;DHT22;38739;53.324;6.862;2023-10-08T13:28:44;20.60;92.50
52867;DHT22;38739;53.324;6.862;2023-10-08T13:31:12;20.30;91.80
52867;DHT22;38739;53.324;6.862;2023-10-08T13:33:42;20.20;97.60
52867;DHT22;38739;53.324;6.862;2023-10-08T13:36:10;20.00;95.90
52867;DHT22;38739;53.324;6.862;2023-10-08T13:38:37;19.80;95.60
52867;DHT22;38739;53.324;6.862;2023-10-08T13:41:04;19.70;94.00
52867;DHT22;38739;53.324;6.862;2023-10-08T13:43:35;19.60;95.80
52867;DHT22;38739;53.324;6.862;2023-10-08T13:46:06;19.50;98.20
52867;DHT22;38739;53.324;6.862;2023-10-08T13:48:34;19.40;96.50
52867;DHT22;38739;53.324;6.862;2023-10-08T13:51:02;19.30;98.60
52867;DHT22;38739;53.324;6.862;2023-10-08T13:53:33;19.20;99.90
52867;DHT22;38739;53.324;6.862;2023-10-08T13:56:02;19.00;98.50
52867;DHT22;38739;53.324;6.862;2023-10-08T13:58:33;18.80;99.90
52867;DHT22;38739;53.324;6.862;2023-10-08T14:01:06;18.60;99.90
52867;DHT22;38739;53.324;6.862;2023-10-08T14:03:45;18.40;99.90
52867;DHT22;38739;53.324;6.862;2023-10-08T14:06:11;18.20;99.60
52867;DHT22;38739;53.324;6.862;2023-10-08T14:08:36;18.00;99.90
52867;DHT22;38739;53.324;6.862;2023-10-08T14:11:04;17.80;99.90
52867;DHT22;38739;53.324;6.862;2023-10-08T14:13:31;17.70;99.90
52867;DHT22;38739;53.324;6.862;2023-10-08T14:15:58;17.60;99.90
52867;DHT22;38739;53.324;6.862;2023-10-08T14:18:27;17.50;99.90
52867;DHT22;38739;53.324;6.862;2023-10-08T14:20:54;17.40;99.90
52867;DHT22;38739;53.324;6.862;2023-10-08T14:23:21;17.40;99.90
52867;DHT22;38739;53.324;6.862;2023-10-08T14:25:49;17.40;99.90
52867;DHT22;38739;53.324;6.862;2023-10-08T14:28:17;17.30;99.90
52867;DHT22;38739;53.324;6.862;2023-10-08T14:31:09;17.40;99.90
52867;DHT22;38739;53.324;6.862;2023-10-08T14:33:43;17.40;99.90
52867;DHT22;38739;53.324;6.862;2023-10-08T14:36:23;17.50;99.90
52867;DHT22;38739;53.324;6.862;2023-10-08T14:39:08;17.50;99.90
52867;DHT22;38739;53.324;6.862;2023-10-08T14:41:52;17.60;99.90
52867;DHT22;38739;53.324;6.862;2023-10-08T14:44:36;17.60;99.90
52867;DHT22;38739;53.324;6.862;2023-10-08T14:47:04;17.50;99.90
52867;DHT22;38739;53.324;6.862;2023-10-08T14:49:30;17.50;99.90
52867;DHT22;38739;53.324;6.862;2023-10-08T14:51:55;17.40;99.90
52867;DHT22;38739;53.324;6.862;2023-10-08T14:54:21;17.30;99.90
52867;DHT22;38739;53.324;6.862;2023-10-08T14:56:47;17.20;99.90
52867;DHT22;38739;53.324;6.862;2023-10-08T14:59:13;17.20;99.90
52867;DHT22;38739;53.324;6.862;2023-10-08T15:01:40;17.20;99.90
52867;DHT22;38739;53.324;6.862;2023-10-08T15:04:06;17.10;99.90
52867;DHT22;38739;53.324;6.862;2023-10-08T15:06:37;17.00;99.90
52867;DHT22;38739;53.324;6.862;2023-10-08T15:09:03;16.90;99.90
52867;DHT22;38739;53.324;6.862;2023-10-08T15:11:29;16.90;99.90
52867;DHT22;38739;53.324;6.862;2023-10-08T15:13:56;16.70;99.90
52867;DHT22;38739;53.324;6.862;2023-10-08T15:16:22;16.70;99.90
52867;DHT22;38739;53.324;6.862;2023-10-08T15:18:53;16.60;99.90
52867;DHT22;38739;53.324;6.862;2023-10-08T15:21:19;16.50;99.90
52867;DHT22;38739;53.324;6.862;2023-10-08T15:23:47;16.50;99.90
52867;DHT22;38739;53.324;6.862;2023-10-08T15:26:13;16.40;99.90
52867;DHT22;38739;53.324;6.862;2023-10-08T15:28:39;16.40;99.90
52867;DHT22;38739;53.324;6.862;2023-10-08T15:31:05;16.40;99.90
52867;DHT22;38739;53.324;6.862;2023-10-08T15:33:32;16.30;99.90
52867;DHT22;38739;53.324;6.862;2023-10-08T15:35:58;16.20;99.90
52867;DHT22;38739;53.324;6.862;2023-10-08T15:38:25;16.20;99.90
52867;DHT22;38739;53.324;6.862;2023-10-08T15:40:51;16.10;99.90
52867;DHT22;38739;53.324;6.862;2023-10-08T15:43:17;16.00;99.90
52867;DHT22;38739;53.324;6.862;2023-10-08T15:45:43;15.90;99.90
52867;DHT22;38739;53.324;6.862;2023-10-08T15:48:10;15.90;99.90
52867;DHT22;38739;53.324;6.862;2023-10-08T15:50:36;15.80;99.90
52867;DHT22;38739;53.324;6.862;2023-10-08T15:53:02;15.80;99.90
52867;DHT22;38739;53.324;6.862;2023-10-08T15:55:27;15.70;99.90
52867;DHT22;38739;53.324;6.862;2023-10-08T15:57:53;15.60;99.90
52867;DHT22;38739;53.324;6.862;2023-10-08T16:00:19;15.60;99.90
52867;DHT22;38739;53.324;6.862;2023-10-08T16:02:45;15.50;99.90
52867;DHT22;38739;53.324;6.862;2023-10-08T16:05:13;15.40;99.90
52867;DHT22;38739;53.324;6.862;2023-10-08T16:07:40;15.40;99.90